• Join FlightAware (Why Join?)
  • Login
  • US Flag 
03:45AM EST


 

Airport Tracker/Info


-or-


 

Live Flight TrackerFlight Track Log ✈ ACA620 ✈ 12-Apr-2013 ✈ CYYZ - CYHZ

Flight Track Log - Related Links

Times and Time Zones

All times are in EDT time to prevent confusion due to time zone crossing. See the ACA620 flight status page for this flight to view local times or setup timezone preferences in your user account.

Time Position Orientation Groundspeed Altitude Reporting Facility
EDT Latitude Longitude Course Direction KTS MPH feet Rate Location/Type
07:33PM 43.6450 -79.6460 225° Southwest 154 177 3,200  Level FlightAware
07:33PM 43.6290 -79.6660 222° Southwest 172 198 4,400 2,100 Climbing FlightAware
07:33PM 43.6200 -79.6690 194° South 192 221 4,600 1,200 Climbing FlightAware
07:34PM 43.5950 -79.6470 147° Southeast 249 287 5,200 780 Climbing FlightAware
07:34PM 43.5850 -79.6270 125° Southeast 264 304 5,200  Level FlightAware
07:35PM 43.5620 -79.5800 124° Southeast 267 307 5,200  Level FlightAware
07:35PM 43.5470 -79.5500 125° Southeast 270 311 5,200 120 Level FlightAware
07:36PM 43.5320 -79.5070 116° Southeast 278 320 5,300 120 Climbing FlightAware
07:36PM 43.5260 -79.4680 102° East 278 320 5,300 1,800 Level FlightAware
07:37PM 43.5600 -79.3300 71° East 307 353 8,300 2,220 Climbing FlightAware
07:38PM 43.5840 -79.2250 72° East 319 367 10,200 1,200 Climbing FlightAware
07:39PM 43.5990 -79.1590 73° East 319 367 10,200  Level FlightAware
07:39PM 43.6150 -79.0930 71° East 319 367 10,200 5,640 Level FlightAware
07:40PM 43.6500 -78.9667 71° East 380 437 16,500 3,060 Climbing Toronto Center
07:46PM 43.8740 -77.9280 71° East 31,000 2,280 Climbing FlightAware
07:46PM 43.8760 -77.9150 78° East 514 592 31,200 2,160 Climbing FlightAware
07:47PM 43.9010 -77.7450 78° East 512 589 33,000 1,200 Climbing FlightAware
07:48PM 43.9200 -77.6140 79° East 515 593 33,000  Level FlightAware
07:48PM 43.9400 -77.4720 79° East 511 588 33,000  Level FlightAware
07:49PM 43.9580 -77.3430 79° East 507 583 33,000  Level FlightAware
07:50PM 43.9740 -77.2150 80° East 503 579 33,000  Level FlightAware
07:51PM 43.9930 -77.0710 80° East 500 575 33,000  Level FlightAware
07:51PM 44.0100 -76.9410 80° East 501 577 33,000  Level FlightAware
07:52PM 44.0290 -76.7980 79° East 503 579 33,000  Level FlightAware
07:53PM 44.0440 -76.6770 80° East 506 582 33,000  Level FlightAware
07:53PM 44.0610 -76.5470 80° East 507 583 33,000  Level FlightAware
07:54PM 44.0790 -76.3990 80° East 510 587 33,000  Level FlightAware
07:55PM 44.0950 -76.2720 80° East 512 589 33,000  Level FlightAware
07:55PM 44.1110 -76.1440 80° East 512 589 33,000  Level FlightAware
07:56PM 44.1290 -75.9940 80° East 512 589 33,000  Level FlightAware
07:57PM 44.1440 -75.8670 81° East 510 587 33,000  Level FlightAware
07:58PM 44.1610 -75.7200 81° East 509 586 33,000  Level FlightAware
07:58PM 44.1770 -75.5920 80° East 510 587 33,000  Level FlightAware
07:59PM 44.1920 -75.4590 81° East 510 587 33,000  Level FlightAware
08:00PM 44.2090 -75.3130 81° East 511 588 33,000  Level FlightAware
08:00PM 44.2240 -75.1770 81° East 513 590 33,000  Level FlightAware
08:01PM 44.2380 -75.0570 81° East 514 592 33,000  Level FlightAware
08:02PM 44.2530 -74.9210 81° East 515 593 33,000  Level FlightAware
08:02PM 44.2680 -74.7870 81° East 515 593 33,000  Level FlightAware
08:03PM 44.2850 -74.6270 82° East 514 592 33,000  Level FlightAware
08:04PM 44.3050 -74.4480 81° East 514 592 33,000  Level FlightAware
08:05PM 44.3160 -74.3370 82° East 515 593 33,000  Level FlightAware
08:05PM 44.3320 -74.1860 82° East 514 592 33,000  Level FlightAware
08:06PM 44.3460 -74.0530 82° East 514 592 33,000  Level FlightAware
08:07PM 44.3600 -73.9150 82° East 514 592 33,000  Level FlightAware
08:08PM 44.3750 -73.7610 82° East 515 593 33,000  Level FlightAware
08:08PM 44.3880 -73.6320 82° East 515 593 33,000  Level FlightAware
08:09PM 44.4030 -73.4880 82° East 514 592 33,000  Level FlightAware
08:10PM 44.4160 -73.3490 82° East 513 590 33,000  Level FlightAware
08:10PM 44.4270 -73.2360 82° East 511 588 33,000  Level FlightAware
08:11PM 44.4430 -73.0720 82° East 510 587 33,000  Level FlightAware
08:12PM 44.4540 -72.9430 83° East 510 587 33,000  Level FlightAware
08:12PM 44.4680 -72.7950 82° East 509 586 33,000  Level FlightAware
08:13PM 44.4790 -72.6820 82° East 507 583 33,000  Level FlightAware
08:14PM 44.4940 -72.5060 83° East 506 582 33,000  Level FlightAware
08:15PM 44.5050 -72.3790 83° East 506 582 33,000  Level FlightAware
08:15PM 44.5170 -72.2450 83° East 507 583 33,000  Level FlightAware
08:16PM 44.5290 -72.1030 83° East 507 583 33,000  Level FlightAware
08:17PM 44.5400 -71.9750 83° East 507 583 33,000  Level FlightAware
08:17PM 44.5510 -71.8470 83° East 508 585 33,000  Level FlightAware
08:18PM 44.5640 -71.6900 83° East 509 586 33,000  Level FlightAware
08:19PM 44.5740 -71.5600 84° East 509 586 33,000  Level FlightAware
08:19PM 44.5860 -71.4160 83° East 510 587 33,000  Level FlightAware
08:20PM 44.5960 -71.2850 84° East 509 586 33,000  Level FlightAware
08:21PM 44.6060 -71.1550 84° East 507 583 33,000  Level FlightAware
08:22PM 44.6180 -71.0050 84° East 506 582 33,000  Level FlightAware
08:22PM 44.6260 -70.8930 84° East 506 582 33,000  Level FlightAware
08:23PM 44.6380 -70.7300 84° East 504 580 33,000  Level FlightAware
08:24PM 44.6470 -70.5990 84° East 502 578 33,000  Level FlightAware
08:24PM 44.6580 -70.4520 84° East 501 577 33,000  Level FlightAware
08:25PM 44.6670 -70.3230 84° East 501 577 33,000  Level FlightAware
08:26PM 44.6770 -70.1810 84° East 501 577 33,000  Level FlightAware
08:26PM 44.6850 -70.0520 85° East 501 577 33,000  Level FlightAware
08:27PM 44.6950 -69.9010 85° East 501 577 33,000  Level FlightAware
08:28PM 44.7040 -69.7730 84° East 500 575 33,000  Level FlightAware
08:29PM 44.7120 -69.6460 85° East 499 574 33,000  Level FlightAware
08:29PM 44.7210 -69.5000 85° East 500 575 33,000  Level FlightAware
08:30PM 44.7280 -69.3860 85° East 501 577 33,000  Level FlightAware
08:31PM 44.7380 -69.2260 85° East 501 577 33,000  Level FlightAware
08:31PM 44.7450 -69.0950 86° East 502 578 33,000  Level FlightAware
08:32PM 44.7530 -68.9660 85° East 503 579 33,000  Level FlightAware
08:33PM 44.7600 -68.8360 86° East 503 579 33,000  Level FlightAware
08:33PM 44.7680 -68.6890 86° East 505 581 33,000  Level FlightAware
08:34PM 44.7760 -68.5400 86° East 506 582 33,000  Level FlightAware
08:35PM 44.7830 -68.4080 86° East 507 583 33,000  Level FlightAware
08:36PM 44.7900 -68.2790 86° East 506 582 33,000  Level FlightAware
08:36PM 44.7980 -68.1280 86° East 504 580 33,000  Level FlightAware
08:37PM 44.8040 -67.9980 86° East 502 578 33,000  Level FlightAware
08:38PM 44.8110 -67.8530 86° East 501 577 33,000  Level FlightAware
08:38PM 44.8170 -67.7220 86° East 501 577 33,000  Level FlightAware
08:39PM 44.8210 -67.6290 86° East 500 575 33,000  Level FlightAware
08:40PM 44.8290 -67.4570 86° East 499 574 33,000  Level FlightAware
08:40PM 44.8350 -67.3280 86° East 500 575 33,000  Level FlightAware
08:41PM 44.8410 -67.1810 87° East 498 573 33,000  Level FlightAware
08:42PM 44.8460 -67.0530 87° East 498 573 33,000  Level FlightAware
08:43PM 44.8510 -66.9220 87° East 497 572 33,000  Level FlightAware
08:43PM 44.8570 -66.7770 87° East 497 572 33,000  Level FlightAware
08:44PM 44.8620 -66.6460 87° East 497 572 33,000  Level FlightAware
08:45PM 44.8660 -66.5190 87° East 497 572 33,000  Level FlightAware
08:45PM 44.8720 -66.3710 87° East 496 571 33,000 -180 Level FlightAware
08:46PM 44.8760 -66.2420 87° East 489 563 32,800 -720 Descending FlightAware
08:47PM 44.8810 -66.0980 87° East 476 548 32,000 -1,140 Descending FlightAware
08:47PM 44.8840 -65.9900 88° East 469 540 31,300 -1,320 Descending FlightAware
08:48PM 44.8890 -65.8390 87° East 460 529 30,200 -1,380 Descending FlightAware
08:49PM 44.8920 -65.7230 88° East 455 524 29,300 -1,440 Descending FlightAware
08:50PM 44.8950 -65.6030 88° East 451 519 28,300 -1,440 Descending FlightAware
08:50PM 44.8990 -65.4720 87° East 447 514 27,300 -1,380 Descending FlightAware
08:51PM 44.9020 -65.3550 88° East 441 507 26,400 -1,440 Descending FlightAware
08:53PM 44.9090 -65.0710 88° East 423 487 24,000 -1,500 Descending FlightAware
08:53PM 44.9110 -64.9630 88° East 416 479 22,900 -1,680 Descending FlightAware
08:54PM 44.9140 -64.8560 88° East 410 472 21,800 -1,560 Descending FlightAware
08:55PM 44.9160 -64.7400 89° East 403 464 20,700 -1,500 Descending FlightAware
08:55PM 44.9180 -64.6390 88° East 397 457 19,700 -1,800 Descending FlightAware
08:56PM 44.9280 -64.5180 83° East 403 464 18,200 -1,920 Descending FlightAware
08:57PM 44.9450 -64.4200 76° East 405 466 17,000 -1,620 Descending FlightAware
08:57PM 44.9590 -64.3350 77° East 400 460 16,200 -1,560 Descending FlightAware
08:58PM 44.9760 -64.2320 77° East 393 452 15,100 -780 Descending FlightAware
08:59PM 44.9950 -64.1280 75° East 393 452 15,100  Level FlightAware
09:00PM 45.0130 -64.0220 76° East 393 452 15,100  Level FlightAware
09:00PM 45.0280 -63.9370 76° East 393 452 15,100  Level FlightAware
09:01PM 45.0430 -63.8520 76° East 393 452 15,100  Level FlightAware
09:02PM 45.0580 -63.7670 76° East 393 452 15,100 -4,380 Level FlightAware
09:02PM 45.0500 -63.6333 76° East 360 414 10,000 -3,780 Descending Moncton Center
09:03PM 45.0833 -63.5167 68° East 320 368 9,500 -660 Descending Moncton Center
09:04PM 45.1000 -63.4000 79° East 290 334 8,700 -660 Descending Moncton Center
09:05PM 45.1500 -63.3333 43° Northeast 260 299 8,200 -1,080 Descending Moncton Center
09:06PM 45.1833 -63.2833 47° Northeast 210 242 6,600 -1,440 Descending Moncton Center
09:07PM 45.1500 -63.2333 133° Southeast 180 207 5,400 -1,020 Descending Moncton Center
09:08PM 45.1000 -63.2667 205° Southwest 180 207 4,600 -660 Descending Moncton Center
09:09PM 45.0667 -63.3000 215° Southwest 180 207 4,100 -480 Descending Moncton Center
09:10PM 45.0167 -63.3500 215° Southwest 180 207 3,700 -540 Descending Moncton Center
09:11PM 44.9833 -63.3833 215° Southwest 180 207 3,100 -780 Descending Moncton Center
09:12PM 44.9333 -63.4333 215° Southwest 160 184 2,200 -900 Descending Moncton Center
09:13PM 44.9167 -63.4500 215° Southwest 140 161 1,400 -780 Descending Moncton Center
09:14PM 44.8833 -63.4833 215° Southwest 130 150 700 -720 Descending Moncton Center